createdAt,value
2023-04-24T00:01:48.628Z,100.00
2023-04-24T00:05:51.043Z,100.00
2023-04-24T00:09:53.248Z,100.00
2023-04-24T00:13:55.795Z,100.00
2023-04-24T00:17:57.993Z,100.00
2023-04-24T00:22:00.178Z,100.00
2023-04-24T00:26:02.276Z,100.00
2023-04-24T00:30:05.824Z,100.00
2023-04-24T00:34:08.882Z,100.00
2023-04-24T00:38:11.406Z,100.00
2023-04-24T00:42:13.525Z,100.00
2023-04-24T00:46:15.924Z,100.00
2023-04-24T00:50:20.624Z,100.00
2023-04-24T00:54:22.714Z,100.00
2023-04-24T00:58:26.705Z,100.00
2023-04-24T01:02:29.277Z,100.00
2023-04-24T01:06:34.552Z,100.00
2023-04-24T01:10:37.754Z,100.00
2023-04-24T01:14:42.215Z,100.00
2023-04-24T01:18:45.189Z,100.00
2023-04-24T01:22:47.285Z,100.00
2023-04-24T01:26:51.068Z,100.00
2023-04-24T01:30:55.588Z,100.00
2023-04-24T01:34:59.376Z,100.00
2023-04-24T01:39:01.970Z,100.00
2023-04-24T01:43:04.124Z,100.00
2023-04-24T01:47:06.796Z,100.00
2023-04-24T01:51:09.032Z,100.00
2023-04-24T01:55:12.949Z,100.00
2023-04-24T01:59:18.015Z,100.00
2023-04-24T02:03:20.562Z,100.00
2023-04-24T02:07:28.200Z,100.00
2023-04-24T02:11:32.001Z,100.00
2023-04-24T02:15:34.287Z,100.00
2023-04-24T02:19:36.494Z,100.00
2023-04-24T02:23:38.559Z,100.00
2023-04-24T02:27:40.754Z,100.00
2023-04-24T02:31:42.931Z,100.00
2023-04-24T02:35:45.286Z,100.00
2023-04-24T02:39:47.274Z,100.00
2023-04-24T02:43:49.357Z,100.00
2023-04-24T02:47:51.545Z,100.00
2023-04-24T02:51:53.724Z,100.00
2023-04-24T02:55:55.884Z,100.00
2023-04-24T02:59:57.928Z,100.00
2023-04-24T03:04:00.437Z,100.00
2023-04-24T03:08:02.634Z,100.00
2023-04-24T03:12:04.933Z,100.00
2023-04-24T03:16:07.048Z,100.00
2023-04-24T03:20:09.887Z,100.00
2023-04-24T03:24:12.446Z,100.00
2023-04-24T03:28:14.631Z,100.00
2023-04-24T03:32:20.614Z,100.00
2023-04-24T03:36:23.756Z,100.00
2023-04-24T03:40:26.170Z,100.00
2023-04-24T03:44:28.326Z,100.00
2023-04-24T03:48:31.044Z,100.00
2023-04-24T03:52:33.443Z,100.00
2023-04-24T03:56:35.892Z,100.00
2023-04-24T04:00:38.866Z,100.00
2023-04-24T04:04:59.271Z,100.00
2023-04-24T04:09:02.515Z,100.00
2023-04-24T04:13:05.480Z,100.00
2023-04-24T04:17:07.778Z,100.00
2023-04-24T04:21:10.097Z,100.00
2023-04-24T04:25:12.742Z,100.00
2023-04-24T04:29:15.869Z,100.00
2023-04-24T04:33:22.091Z,100.00
2023-04-24T04:37:24.600Z,100.00
2023-04-24T04:41:42.819Z,100.00
2023-04-24T04:45:46.329Z,100.00
2023-04-24T04:50:09.156Z,100.00
2023-04-24T04:54:11.447Z,100.00
2023-04-24T04:58:13.789Z,100.00
2023-04-24T05:02:16.154Z,100.00
2023-04-24T05:06:18.428Z,100.00
2023-04-24T05:10:21.947Z,100.00
2023-04-24T05:19:10.221Z,100.00
2023-04-24T05:23:15.898Z,100.00
2023-04-24T05:27:21.764Z,100.00
2023-04-24T05:31:25.059Z,100.00
2023-04-24T05:35:27.199Z,100.00
2023-04-24T05:39:29.290Z,100.00
2023-04-24T05:43:31.410Z,100.00
2023-04-24T05:47:33.487Z,100.00
2023-04-24T05:51:36.644Z,100.00
2023-04-24T05:55:39.348Z,100.00
2023-04-24T05:59:42.812Z,100.00
2023-04-24T06:03:46.528Z,100.00
2023-04-24T06:07:49.461Z,100.00
2023-04-24T06:11:55.495Z,100.00
2023-04-24T06:16:02.027Z,100.00
2023-04-24T06:20:10.000Z,100.00
2023-04-24T06:24:12.921Z,100.00
2023-04-24T06:28:15.017Z,100.00
2023-04-24T06:32:17.224Z,100.00
2023-04-24T06:36:19.486Z,100.00
2023-04-24T06:40:21.822Z,100.00
2023-04-24T06:44:24.060Z,100.00
2023-04-24T06:48:26.955Z,100.00
2023-04-24T06:52:29.120Z,100.00
2023-04-24T06:56:32.064Z,100.00
2023-04-24T07:00:34.863Z,100.00
2023-04-24T07:04:37.851Z,100.00
2023-04-24T07:08:40.465Z,100.00
2023-04-24T07:12:43.325Z,100.00
2023-04-24T07:16:46.304Z,100.00
2023-04-24T07:20:48.429Z,100.00
2023-04-24T07:24:50.533Z,100.00
2023-04-24T07:28:52.550Z,100.00
2023-04-24T07:32:54.631Z,100.00
2023-04-24T07:36:56.966Z,100.00
2023-04-24T07:40:59.313Z,100.00
2023-04-24T07:45:01.425Z,100.00
2023-04-24T07:49:12.947Z,100.00
2023-04-24T07:53:16.332Z,100.00
2023-04-24T07:57:18.480Z,100.00
2023-04-24T08:01:20.768Z,100.00
2023-04-24T08:05:23.087Z,100.00
2023-04-24T08:09:27.532Z,100.00
2023-04-24T08:13:29.826Z,100.00
2023-04-24T08:17:34.706Z,100.00
2023-04-24T08:21:36.882Z,100.00
2023-04-24T08:25:39.122Z,100.00
2023-04-24T08:29:41.763Z,100.00
2023-04-24T08:33:46.108Z,100.00
2023-04-24T08:37:48.198Z,100.00
2023-04-24T08:41:51.711Z,100.00
2023-04-24T08:45:56.996Z,100.00
2023-04-24T08:50:03.832Z,100.00
2023-04-24T08:54:06.356Z,100.00
2023-04-24T08:58:09.043Z,100.00
2023-04-24T09:02:12.887Z,100.00
2023-04-24T09:06:15.993Z,100.00
2023-04-24T09:10:18.383Z,100.00
2023-04-24T09:14:21.358Z,100.00
2023-04-24T09:18:23.387Z,100.00
2023-04-24T09:22:25.835Z,100.00
2023-04-24T09:26:33.160Z,100.00
2023-04-24T09:30:35.547Z,100.00
2023-04-24T09:34:37.627Z,100.00
2023-04-24T09:38:40.032Z,100.00
2023-04-24T09:42:53.427Z,100.00
2023-04-24T09:46:57.714Z,100.00
2023-04-24T09:51:01.974Z,99.41
2023-04-24T09:55:12.174Z,90.89
2023-04-24T09:59:18.866Z,93.02
2023-04-24T10:03:21.297Z,96.44
2023-04-24T10:07:26.938Z,91.04
2023-04-24T10:11:29.290Z,95.52
2023-04-24T10:15:31.780Z,94.61
2023-04-24T10:19:36.846Z,91.85
2023-04-24T10:23:39.637Z,91.07
2023-04-24T10:27:42.103Z,91.03
2023-04-24T10:31:47.182Z,89.33
2023-04-24T10:35:52.151Z,88.23
2023-04-24T10:39:55.725Z,91.00
2023-04-24T10:44:12.373Z,89.77
2023-04-24T10:48:16.879Z,91.08
2023-04-24T10:52:19.202Z,88.79
2023-04-24T10:56:23.217Z,87.82
2023-04-24T11:00:28.698Z,83.81
2023-04-24T11:04:32.654Z,87.15
2023-04-24T11:08:47.250Z,84.32
2023-04-24T11:12:52.207Z,87.26
2023-04-24T11:16:58.791Z,85.31
2023-04-24T11:21:12.047Z,78.79
2023-04-24T11:25:17.402Z,81.08
2023-04-24T11:29:23.269Z,83.40
2023-04-24T11:33:26.430Z,82.37
2023-04-24T11:37:36.506Z,77.06
2023-04-24T11:41:39.241Z,78.07
2023-04-24T11:45:49.973Z,70.81
2023-04-24T11:49:52.656Z,77.24
2023-04-24T11:54:03.546Z,77.63
2023-04-24T11:58:07.304Z,75.89
2023-04-24T12:02:09.932Z,75.05
2023-04-24T12:06:12.941Z,77.93
2023-04-24T12:10:15.988Z,75.94
2023-04-24T12:14:18.296Z,79.42
2023-04-24T12:18:24.209Z,77.04
2023-04-24T12:22:26.637Z,78.55
2023-04-24T12:26:28.813Z,79.83
2023-04-24T12:30:35.829Z,81.75
2023-04-24T12:34:38.842Z,81.32
2023-04-24T12:38:45.508Z,78.27
2023-04-24T12:42:50.330Z,80.23
2023-04-24T12:46:52.576Z,80.38
2023-04-24T12:50:54.788Z,80.80
2023-04-24T12:54:59.881Z,78.97
2023-04-24T12:59:02.082Z,77.21
2023-04-24T13:03:04.632Z,77.02
2023-04-24T13:07:07.243Z,78.43
2023-04-24T13:11:09.466Z,79.41
2023-04-24T13:15:11.639Z,79.37
2023-04-24T13:19:13.727Z,76.52
2023-04-24T13:23:16.694Z,74.17
2023-04-24T13:27:18.930Z,76.77
2023-04-24T13:31:20.980Z,78.95
2023-04-24T13:35:23.143Z,80.06
2023-04-24T13:39:26.468Z,74.77
2023-04-24T13:43:28.521Z,73.63
2023-04-24T13:47:30.812Z,75.25
2023-04-24T13:51:33.926Z,72.08
2023-04-24T13:55:36.200Z,71.88
2023-04-24T13:59:38.296Z,69.79
2023-04-24T14:03:40.528Z,73.07
2023-04-24T14:07:43.066Z,72.69
2023-04-24T14:11:45.469Z,74.93
2023-04-24T14:15:47.774Z,76.04
2023-04-24T14:19:50.008Z,75.25
2023-04-24T14:23:52.318Z,75.40
2023-04-24T14:27:54.457Z,74.97
2023-04-24T14:31:56.812Z,74.85
2023-04-24T14:35:59.106Z,74.89
2023-04-24T14:44:08.792Z,76.12
2023-04-24T14:48:12.452Z,77.95
2023-04-24T14:52:14.542Z,79.42
2023-04-24T14:56:16.858Z,80.76
2023-04-24T15:00:19.741Z,82.07
2023-04-24T15:04:22.862Z,82.62
2023-04-24T15:08:25.199Z,82.75
2023-04-24T15:12:27.325Z,82.74
2023-04-24T15:16:29.432Z,82.82
2023-04-24T15:20:31.596Z,81.16
2023-04-24T15:24:33.659Z,82.04
2023-04-24T15:28:35.798Z,81.74
2023-04-24T15:32:38.260Z,77.49
2023-04-24T15:36:40.530Z,73.00
2023-04-24T15:40:42.646Z,72.01
2023-04-24T15:44:45.998Z,61.11
2023-04-24T15:48:48.416Z,54.56
2023-04-24T15:52:50.669Z,50.85
2023-04-24T15:56:52.816Z,48.08
2023-04-24T16:00:55.667Z,48.14
2023-04-24T16:04:58.694Z,48.20
2023-04-24T16:09:03.529Z,47.11
2023-04-24T16:13:06.485Z,45.86
2023-04-24T16:17:08.538Z,44.62
2023-04-24T16:21:11.100Z,46.43
2023-04-24T16:25:13.583Z,46.55
2023-04-24T16:29:15.941Z,45.60
2023-04-24T16:33:18.904Z,45.66
2023-04-24T16:37:21.700Z,44.65
2023-04-24T16:41:23.830Z,44.47
2023-04-24T16:45:26.100Z,44.35
2023-04-24T16:49:31.599Z,44.55
2023-04-24T16:53:33.829Z,43.34
2023-04-24T16:57:36.019Z,41.94
2023-04-24T17:01:38.086Z,42.05
2023-04-24T17:05:40.244Z,41.23
2023-04-24T17:09:42.822Z,42.64
2023-04-24T17:13:45.326Z,44.08
2023-04-24T17:17:47.477Z,43.18
2023-04-24T17:21:49.606Z,44.31
2023-04-24T17:25:51.689Z,45.77
2023-04-24T17:29:53.781Z,46.85
2023-04-24T17:33:55.908Z,48.02
2023-04-24T17:37:58.857Z,48.04
2023-04-24T17:42:02.218Z,49.38
2023-04-24T17:46:04.483Z,50.70
2023-04-24T17:50:07.154Z,54.35
2023-04-24T17:54:09.185Z,56.62
2023-04-24T17:58:11.620Z,57.50
2023-04-24T18:02:13.808Z,59.52
2023-04-24T18:06:17.410Z,64.00
2023-04-24T18:10:19.531Z,67.39
2023-04-24T18:14:23.603Z,67.68
2023-04-24T18:18:25.768Z,69.63
2023-04-24T18:22:27.872Z,71.04
2023-04-24T18:26:30.269Z,71.64
2023-04-24T18:30:32.634Z,73.32
2023-04-24T18:34:34.700Z,75.23
2023-04-24T18:38:36.987Z,76.75
2023-04-24T18:42:39.216Z,81.57
2023-04-24T18:46:41.631Z,81.48
2023-04-24T18:50:44.472Z,84.08
2023-04-24T18:54:47.902Z,87.42
2023-04-24T18:58:50.768Z,88.10
2023-04-24T19:02:53.483Z,90.38
2023-04-24T19:06:56.022Z,91.08
2023-04-24T19:10:59.632Z,93.05
2023-04-24T19:15:02.582Z,94.93
2023-04-24T19:19:05.723Z,97.15
2023-04-24T19:23:08.752Z,98.51
2023-04-24T19:27:10.924Z,100.00
2023-04-24T19:31:13.245Z,100.00
2023-04-24T19:35:15.821Z,100.00
2023-04-24T19:39:18.016Z,100.00
2023-04-24T19:43:21.153Z,100.00
2023-04-24T19:47:23.278Z,100.00
2023-04-24T19:51:26.512Z,100.00
2023-04-24T19:55:29.344Z,100.00
2023-04-24T19:59:34.013Z,100.00
2023-04-24T20:03:36.505Z,100.00
2023-04-24T20:07:38.756Z,100.00
2023-04-24T20:11:41.111Z,100.00
2023-04-24T20:15:43.281Z,100.00
2023-04-24T20:19:46.456Z,100.00
2023-04-24T20:23:48.716Z,100.00
2023-04-24T20:27:50.932Z,100.00
2023-04-24T20:31:53.406Z,100.00
2023-04-24T20:35:57.018Z,100.00
2023-04-24T20:39:59.957Z,100.00
2023-04-24T20:44:02.791Z,100.00
2023-04-24T20:48:06.288Z,100.00
2023-04-24T20:52:08.747Z,100.00
2023-04-24T20:56:12.162Z,100.00
2023-04-24T21:00:15.519Z,100.00
2023-04-24T21:04:17.959Z,100.00
2023-04-24T21:08:20.209Z,100.00
2023-04-24T21:12:22.499Z,100.00
2023-04-24T21:16:24.704Z,100.00
2023-04-24T21:20:26.899Z,100.00
2023-04-24T21:24:29.217Z,100.00
2023-04-24T21:28:32.082Z,100.00
2023-04-24T21:32:34.277Z,100.00
2023-04-24T21:36:36.776Z,100.00
2023-04-24T21:40:39.022Z,100.00
2023-04-24T21:44:41.221Z,100.00
2023-04-24T21:48:43.478Z,100.00
2023-04-24T21:52:45.732Z,100.00
2023-04-24T21:56:47.933Z,100.00
2023-04-24T22:00:50.045Z,100.00
2023-04-24T22:04:52.978Z,100.00
2023-04-24T22:08:55.172Z,100.00
2023-04-24T22:12:57.210Z,100.00
2023-04-24T22:16:59.231Z,100.00
2023-04-24T22:21:01.672Z,100.00
2023-04-24T22:25:04.413Z,100.00
2023-04-24T22:29:06.518Z,100.00
2023-04-24T22:33:08.712Z,100.00
2023-04-24T22:37:11.440Z,100.00
2023-04-24T22:41:14.136Z,100.00
2023-04-24T22:45:16.793Z,100.00
2023-04-24T22:49:20.128Z,100.00
2023-04-24T22:53:23.261Z,100.00
2023-04-24T22:57:25.333Z,100.00
2023-04-24T23:01:27.707Z,100.00
2023-04-24T23:05:31.160Z,100.00
2023-04-24T23:09:33.555Z,100.00
2023-04-24T23:13:35.560Z,100.00
2023-04-24T23:17:38.162Z,100.00
2023-04-24T23:21:40.570Z,100.00
2023-04-24T23:25:42.721Z,100.00
2023-04-24T23:29:44.805Z,100.00
2023-04-24T23:33:47.108Z,100.00
2023-04-24T23:37:49.383Z,100.00
2023-04-24T23:41:53.648Z,100.00
2023-04-24T23:45:55.846Z,100.00
2023-04-24T23:49:58.052Z,100.00
2023-04-24T23:54:00.759Z,100.00
2023-04-24T23:58:02.778Z,100.00
